createdAt,value
2022-12-12T00:00:37.159Z,98.03
2022-12-12T00:03:25.150Z,96.10
2022-12-12T00:06:13.483Z,95.93
2022-12-12T00:09:03.541Z,90.78
2022-12-12T00:11:51.668Z,96.38
2022-12-12T00:14:39.769Z,96.15
2022-12-12T00:17:28.137Z,94.10
2022-12-12T00:20:17.779Z,94.40
2022-12-12T00:23:06.059Z,100.30
2022-12-12T00:26:01.247Z,91.18
2022-12-12T00:28:49.970Z,88.65
2022-12-12T00:31:40.534Z,101.22
2022-12-12T00:34:28.736Z,89.00
2022-12-12T00:37:16.871Z,91.78
2022-12-12T00:40:06.561Z,87.40
2022-12-12T00:42:54.474Z,98.25
2022-12-12T00:45:45.496Z,101.43
2022-12-12T00:48:33.545Z,96.20
2022-12-12T00:51:23.628Z,100.57
2022-12-12T00:54:12.696Z,96.95
2022-12-12T00:57:00.601Z,103.30
2022-12-12T00:59:48.448Z,98.32
2022-12-12T01:02:36.563Z,88.78
2022-12-12T01:05:26.067Z,114.85
2022-12-12T01:08:14.159Z,103.13
2022-12-12T01:11:02.112Z,102.50
2022-12-12T01:13:52.415Z,106.20
2022-12-12T01:16:42.795Z,102.90
2022-12-12T01:19:31.947Z,105.10
2022-12-12T01:22:20.244Z,106.93
2022-12-12T01:25:10.954Z,114.22
2022-12-12T01:28:00.135Z,101.95
2022-12-12T01:30:48.296Z,105.60
2022-12-12T01:33:36.780Z,100.25
2022-12-12T01:36:27.301Z,108.05
2022-12-12T01:39:15.530Z,106.10
2022-12-12T01:42:03.700Z,99.43
2022-12-12T01:44:53.604Z,97.03
2022-12-12T01:47:41.480Z,98.95
2022-12-12T01:50:29.403Z,101.25
2022-12-12T01:53:19.556Z,110.72
2022-12-12T01:56:12.521Z,97.75
2022-12-12T01:59:04.041Z,94.13
2022-12-12T02:01:53.508Z,95.18
2022-12-12T02:04:42.686Z,96.53
2022-12-12T02:07:30.622Z,93.90
2022-12-12T02:10:18.796Z,94.35
2022-12-12T02:13:12.745Z,90.68
2022-12-12T02:16:26.163Z,91.47
2022-12-12T02:19:57.100Z,94.25
2022-12-12T02:23:10.260Z,97.32
2022-12-12T02:26:47.636Z,94.85
2022-12-12T02:29:55.756Z,97.70
2022-12-12T02:33:14.662Z,97.07
2022-12-12T02:36:52.221Z,98.82
2022-12-12T02:40:11.763Z,99.90
2022-12-12T02:43:25.530Z,99.72
2022-12-12T02:46:32.725Z,98.60
2022-12-12T02:49:33.185Z,104.18
2022-12-12T02:52:22.359Z,102.18
2022-12-12T02:55:11.145Z,100.78
2022-12-12T02:57:59.828Z,101.00
2022-12-12T03:01:29.407Z,102.55
2022-12-12T03:04:53.075Z,100.75
2022-12-12T03:08:11.859Z,102.15
2022-12-12T03:11:15.575Z,101.82
2022-12-12T03:14:14.000Z,101.15
2022-12-12T03:17:34.315Z,100.22
2022-12-12T03:20:49.777Z,97.35
2022-12-12T03:23:43.297Z,107.43
2022-12-12T03:26:40.315Z,110.53
2022-12-12T03:29:41.196Z,103.85
2022-12-12T03:32:38.350Z,108.72
2022-12-12T03:35:50.971Z,103.30
2022-12-12T03:38:46.386Z,106.25
2022-12-12T03:41:44.085Z,105.07
2022-12-12T03:45:03.636Z,114.57
2022-12-12T03:47:56.407Z,107.18
2022-12-12T03:50:50.935Z,112.22
2022-12-12T03:58:23.114Z,115.30
2022-12-12T04:01:13.146Z,118.97
2022-12-12T04:04:18.773Z,123.13
2022-12-12T04:07:23.486Z,111.85
2022-12-12T04:10:31.085Z,115.80
2022-12-12T04:13:32.568Z,105.43
2022-12-12T04:16:29.872Z,116.45
2022-12-12T04:19:53.888Z,126.00
2022-12-12T04:23:15.454Z,120.85
2022-12-12T04:26:39.631Z,122.70
2022-12-12T04:30:00.680Z,125.13
2022-12-12T04:32:57.638Z,126.55
2022-12-12T04:35:50.090Z,119.22
2022-12-12T04:38:38.778Z,117.93
2022-12-12T04:41:28.831Z,130.00
2022-12-12T04:44:19.994Z,128.15
2022-12-12T04:47:10.489Z,120.53
2022-12-12T04:50:01.482Z,130.88
2022-12-12T04:52:51.016Z,133.88
2022-12-12T04:55:44.731Z,129.85
2022-12-12T04:58:32.630Z,135.43
2022-12-12T05:01:57.181Z,136.27
2022-12-12T05:08:00.841Z,132.07
2022-12-12T05:10:55.827Z,133.10
2022-12-12T05:13:44.989Z,148.98
2022-12-12T05:16:40.160Z,156.80
2022-12-12T05:19:28.066Z,150.05
2022-12-12T05:22:16.012Z,158.02
2022-12-12T05:25:04.879Z,149.93
2022-12-12T05:27:52.727Z,151.77
2022-12-12T05:30:40.730Z,155.32
2022-12-12T05:33:28.613Z,134.98
2022-12-12T05:36:17.525Z,145.35
2022-12-12T05:39:05.548Z,155.85
2022-12-12T05:41:53.373Z,148.40
2022-12-12T05:44:41.281Z,155.65
2022-12-12T05:47:32.227Z,146.68
2022-12-12T05:50:20.081Z,143.85
2022-12-12T05:53:08.225Z,142.50
2022-12-12T05:55:56.439Z,148.30
2022-12-12T05:58:44.375Z,133.70
2022-12-12T06:01:32.624Z,140.75
2022-12-12T06:04:20.610Z,148.25
2022-12-12T06:07:09.322Z,161.15
2022-12-12T06:09:57.274Z,154.73
2022-12-12T06:12:47.446Z,154.43
2022-12-12T06:15:40.433Z,151.55
2022-12-12T06:18:28.259Z,155.53
2022-12-12T06:21:16.277Z,152.85
2022-12-12T06:24:06.848Z,157.05
2022-12-12T06:26:54.707Z,166.73
2022-12-12T06:29:42.655Z,190.05
2022-12-12T06:32:30.684Z,176.63
2022-12-12T06:35:18.974Z,187.95
2022-12-12T06:38:19.579Z,162.63
2022-12-12T06:41:10.399Z,164.65
2022-12-12T06:44:00.234Z,154.38
2022-12-12T06:46:50.803Z,169.25
2022-12-12T06:50:11.833Z,166.32
2022-12-12T06:52:59.961Z,168.70
2022-12-12T06:55:48.274Z,153.70
2022-12-12T06:58:44.744Z,166.80
2022-12-12T07:01:33.535Z,167.27
2022-12-12T07:04:28.946Z,174.38
2022-12-12T07:07:17.418Z,180.75
2022-12-12T07:10:06.769Z,167.73
2022-12-12T07:13:05.112Z,149.05
2022-12-12T07:15:59.274Z,149.85
2022-12-12T07:18:55.851Z,161.35
2022-12-12T07:21:44.124Z,157.88
2022-12-12T07:24:35.060Z,147.07
2022-12-12T07:27:23.219Z,165.63
2022-12-12T07:33:39.537Z,162.27
2022-12-12T07:36:29.157Z,150.93
2022-12-12T07:39:20.909Z,138.10
2022-12-12T07:42:09.353Z,137.82
2022-12-12T07:44:57.626Z,159.27
2022-12-12T07:47:48.609Z,161.00
2022-12-12T07:50:39.829Z,170.68
2022-12-12T07:53:31.250Z,157.65
2022-12-12T07:56:23.613Z,169.73
2022-12-12T07:59:12.767Z,152.73
2022-12-12T08:02:04.430Z,152.27
2022-12-12T08:04:59.466Z,152.65
2022-12-12T08:07:48.223Z,153.52
2022-12-12T08:10:42.715Z,150.13
2022-12-12T08:13:39.310Z,154.73
2022-12-12T08:16:32.331Z,161.93
2022-12-12T08:19:26.319Z,150.63
2022-12-12T08:22:18.578Z,155.93
2022-12-12T08:25:12.381Z,138.98
2022-12-12T08:28:07.200Z,149.07
2022-12-12T08:34:16.408Z,134.68
2022-12-12T08:37:39.617Z,131.55
2022-12-12T08:40:49.322Z,130.63
2022-12-12T08:43:41.253Z,147.82
2022-12-12T08:46:34.713Z,131.32
2022-12-12T08:49:37.398Z,140.82
2022-12-12T08:52:45.327Z,129.00
2022-12-12T08:55:49.940Z,136.48
2022-12-12T09:02:10.167Z,144.35
2022-12-12T09:08:31.207Z,134.52
2022-12-12T09:11:25.061Z,121.93
2022-12-12T09:17:02.409Z,114.97
2022-12-12T09:19:50.933Z,113.30
2022-12-12T09:22:39.485Z,127.97
2022-12-12T09:26:54.847Z,119.07
2022-12-12T09:29:45.527Z,108.05
2022-12-12T09:33:12.957Z,115.63
2022-12-12T09:36:09.244Z,107.15
2022-12-12T09:39:00.118Z,108.53
2022-12-12T09:41:51.099Z,104.75
2022-12-12T09:44:40.779Z,127.05
2022-12-12T09:47:47.455Z,123.47
2022-12-12T09:51:09.438Z,124.72
2022-12-12T09:54:11.072Z,117.38
2022-12-12T09:57:25.224Z,122.75
2022-12-12T10:04:13.783Z,117.40
2022-12-12T10:07:24.858Z,114.75
2022-12-12T10:10:58.799Z,110.03
2022-12-12T10:13:55.679Z,113.80
2022-12-12T10:16:53.957Z,111.00
2022-12-12T10:19:56.565Z,112.07
2022-12-12T10:22:52.711Z,110.80
2022-12-12T10:26:02.897Z,117.55
2022-12-12T10:29:10.706Z,105.80
2022-12-12T10:32:42.737Z,97.95
2022-12-12T10:35:53.787Z,96.40
2022-12-12T10:39:12.852Z,100.35
2022-12-12T10:42:37.682Z,96.03
2022-12-12T10:51:38.741Z,91.45
2022-12-12T10:54:29.052Z,96.47
2022-12-12T10:57:45.851Z,86.45
2022-12-12T11:00:39.818Z,89.97
2022-12-12T11:06:43.034Z,100.70
2022-12-12T11:09:32.302Z,93.53
2022-12-12T11:12:21.138Z,87.82
2022-12-12T11:15:19.972Z,93.15
2022-12-12T11:18:15.922Z,87.57
2022-12-12T11:21:10.568Z,83.63
2022-12-12T11:23:59.428Z,80.97
2022-12-12T11:27:05.956Z,82.57
2022-12-12T11:30:22.568Z,80.57
2022-12-12T11:33:31.410Z,75.97
2022-12-12T11:36:37.319Z,77.15
2022-12-12T11:39:42.172Z,71.88
2022-12-12T11:50:10.800Z,98.68
2022-12-12T11:53:05.414Z,91.68
2022-12-12T11:56:20.557Z,90.90
2022-12-12T11:59:11.790Z,83.28
2022-12-12T12:02:55.443Z,81.97
2022-12-12T12:06:01.786Z,69.28
2022-12-12T12:09:20.849Z,71.43
2022-12-12T12:12:23.822Z,63.75
2022-12-12T12:15:41.843Z,65.85
2022-12-12T12:18:48.918Z,65.65
2022-12-12T12:21:44.803Z,69.70
2022-12-12T12:25:18.807Z,68.30
2022-12-12T12:28:28.948Z,65.70
2022-12-12T12:31:57.799Z,62.58
2022-12-12T12:35:31.494Z,57.92
2022-12-12T12:38:49.966Z,59.42
2022-12-12T12:42:23.982Z,57.53
2022-12-12T12:45:53.340Z,54.47
2022-12-12T12:48:52.920Z,55.58
2022-12-12T12:51:53.227Z,51.58
2022-12-12T12:54:49.370Z,58.83
2022-12-12T12:57:44.580Z,59.63
2022-12-12T13:00:35.883Z,68.43
2022-12-12T13:03:36.127Z,69.82
2022-12-12T13:06:47.332Z,67.88
2022-12-12T13:09:42.434Z,65.40
2022-12-12T13:12:43.419Z,65.53
2022-12-12T13:15:39.476Z,76.10
2022-12-12T13:18:45.062Z,82.45
2022-12-12T13:21:58.121Z,85.50
2022-12-12T13:25:12.718Z,79.90
2022-12-12T13:28:19.643Z,80.78
2022-12-12T13:31:40.221Z,84.18
2022-12-12T13:37:20.954Z,70.10
2022-12-12T13:40:25.215Z,71.50
2022-12-12T13:46:49.465Z,80.00
2022-12-12T13:50:10.262Z,74.30
2022-12-12T13:53:28.787Z,76.85
2022-12-12T13:56:47.824Z,79.88
2022-12-12T14:00:04.304Z,76.47
2022-12-12T14:03:17.495Z,90.65
2022-12-12T14:06:14.376Z,88.30
2022-12-12T14:09:04.525Z,86.35
2022-12-12T14:12:08.824Z,90.88
2022-12-12T14:15:03.540Z,117.97
2022-12-12T14:18:16.893Z,79.55
2022-12-12T14:21:11.623Z,78.70
2022-12-12T14:24:35.295Z,66.60
2022-12-12T14:27:51.968Z,72.53
2022-12-12T14:31:12.332Z,69.70
2022-12-12T14:34:08.623Z,69.22
2022-12-12T14:37:44.725Z,67.90
2022-12-12T14:40:44.863Z,63.22
2022-12-12T14:43:45.505Z,68.07
2022-12-12T14:46:45.087Z,62.95
2022-12-12T14:49:39.353Z,64.63
2022-12-12T14:52:32.402Z,66.00
2022-12-12T14:55:31.647Z,73.53
2022-12-12T14:58:28.720Z,75.53
2022-12-12T15:01:52.788Z,76.28
2022-12-12T15:04:47.814Z,69.47
2022-12-12T15:07:39.240Z,66.13
2022-12-12T15:10:30.925Z,61.67
2022-12-12T15:13:26.828Z,66.07
2022-12-12T15:16:17.281Z,68.65
2022-12-12T15:19:06.471Z,62.00
2022-12-12T15:22:03.502Z,70.45
2022-12-12T15:24:56.101Z,72.05
2022-12-12T15:27:55.734Z,73.28
2022-12-12T15:30:49.841Z,72.68
2022-12-12T15:33:42.931Z,73.07
2022-12-12T15:40:33.351Z,79.97
2022-12-12T15:43:30.779Z,75.68
2022-12-12T15:51:33.688Z,77.60
2022-12-12T15:54:57.661Z,79.53
2022-12-12T15:58:01.853Z,73.57
2022-12-12T16:04:32.756Z,76.97
2022-12-12T16:07:36.807Z,85.57
2022-12-12T16:13:40.352Z,87.20
2022-12-12T16:16:49.963Z,83.30
2022-12-12T16:20:16.484Z,88.05
2022-12-12T16:27:13.874Z,87.43
2022-12-12T16:30:07.102Z,94.85
2022-12-12T16:45:08.665Z,92.65
2022-12-12T16:47:38.715Z,94.57
2022-12-12T16:58:46.907Z,115.22
2022-12-12T17:09:54.500Z,115.85
2022-12-12T17:14:13.727Z,108.93
2022-12-12T17:18:34.255Z,114.53
2022-12-12T17:21:54.291Z,115.78
2022-12-12T17:38:46.899Z,113.82
2022-12-12T17:44:58.709Z,109.30
2022-12-12T17:49:40.111Z,116.32
2022-12-12T17:52:32.357Z,108.18
2022-12-12T17:56:01.082Z,109.22
2022-12-12T18:04:31.297Z,105.82
2022-12-12T18:10:57.190Z,102.43
2022-12-12T18:20:19.945Z,98.32
2022-12-12T18:40:13.040Z,88.95
2022-12-12T18:55:49.307Z,98.28
2022-12-12T18:58:58.183Z,97.10
2022-12-12T19:02:54.452Z,96.20
2022-12-12T19:06:49.815Z,99.65
2022-12-12T19:14:14.054Z,90.45
2022-12-12T19:17:27.393Z,93.07
2022-12-12T19:20:57.941Z,92.20
2022-12-12T19:23:55.915Z,97.82
2022-12-12T19:27:43.895Z,94.00
2022-12-12T19:38:22.734Z,94.00
2022-12-12T19:41:44.750Z,91.75
2022-12-12T19:48:37.647Z,99.47
2022-12-12T19:55:13.974Z,91.88
2022-12-12T20:13:44.957Z,97.57
2022-12-12T20:16:36.217Z,96.82
2022-12-12T20:19:31.265Z,98.72
2022-12-12T20:22:31.154Z,93.55
2022-12-12T20:25:24.848Z,91.22
2022-12-12T20:32:39.783Z,93.47
2022-12-12T20:36:35.577Z,105.80
2022-12-12T20:39:40.179Z,101.32
2022-12-12T20:42:47.310Z,99.00
2022-12-12T20:45:41.407Z,94.43
2022-12-12T20:48:46.307Z,85.28
2022-12-12T20:51:57.017Z,92.38
2022-12-12T20:54:55.976Z,97.00
2022-12-12T20:57:53.114Z,87.68
2022-12-12T21:00:55.829Z,93.07
2022-12-12T21:03:51.748Z,84.47
2022-12-12T21:07:06.551Z,97.07
2022-12-12T21:10:02.303Z,82.63
2022-12-12T21:13:05.463Z,82.47
2022-12-12T21:16:12.172Z,83.53
2022-12-12T21:22:31.133Z,87.22
2022-12-12T21:25:36.413Z,101.35
2022-12-12T21:29:06.322Z,87.40
2022-12-12T21:44:16.357Z,86.35
2022-12-12T21:47:10.912Z,86.00
2022-12-12T21:50:13.335Z,88.78
2022-12-12T21:53:20.192Z,80.18
2022-12-12T21:56:18.958Z,90.47
2022-12-12T21:59:21.344Z,87.32
2022-12-12T22:02:19.100Z,87.32
2022-12-12T22:05:12.933Z,93.10
2022-12-12T22:08:03.291Z,87.80
2022-12-12T22:10:56.373Z,98.93
2022-12-12T22:13:47.233Z,87.50
2022-12-12T22:16:35.935Z,93.80
2022-12-12T22:19:31.523Z,101.75
2022-12-12T22:22:19.853Z,97.80
2022-12-12T22:25:16.343Z,107.55
2022-12-12T22:28:07.335Z,98.18
2022-12-12T22:30:56.027Z,93.65
2022-12-12T22:33:45.535Z,90.97
2022-12-12T22:36:40.132Z,88.75
2022-12-12T22:39:35.519Z,78.28
2022-12-12T22:42:36.718Z,88.03
2022-12-12T22:45:29.655Z,98.43
2022-12-12T22:48:20.464Z,87.30
2022-12-12T22:51:30.355Z,90.00
2022-12-12T22:54:24.189Z,92.47
2022-12-12T22:57:12.592Z,83.50
2022-12-12T23:00:06.547Z,87.38
2022-12-12T23:03:11.784Z,95.88
2022-12-12T23:06:22.546Z,90.57
2022-12-12T23:09:24.640Z,88.80
2022-12-12T23:12:45.142Z,90.35
2022-12-12T23:15:42.261Z,94.75
2022-12-12T23:18:35.707Z,81.05
2022-12-12T23:21:38.415Z,85.75
2022-12-12T23:24:33.131Z,82.57
2022-12-12T23:27:25.957Z,90.55
2022-12-12T23:30:20.744Z,85.75
2022-12-12T23:33:11.649Z,86.88
2022-12-12T23:36:06.275Z,91.18
2022-12-12T23:39:01.517Z,84.47
2022-12-12T23:41:52.806Z,89.03
2022-12-12T23:44:41.329Z,88.35
2022-12-12T23:47:35.185Z,81.90
2022-12-12T23:50:27.663Z,78.70
2022-12-12T23:53:26.454Z,79.65
2022-12-12T23:56:27.501Z,84.47
2022-12-12T23:59:20.348Z,86.28
